createdAt,value
2023-04-17T00:00:35.408Z,10.00
2023-04-17T00:05:35.346Z,11.19
2023-04-17T00:10:35.275Z,12.10
2023-04-17T00:15:35.217Z,10.60
2023-04-17T00:20:35.131Z,9.50
2023-04-17T00:25:35.072Z,10.00
2023-04-17T00:30:34.996Z,8.39
2023-04-17T00:35:34.937Z,10.10
2023-04-17T00:40:34.866Z,10.30
2023-04-17T00:45:34.850Z,8.39
2023-04-17T00:50:34.731Z,9.39
2023-04-17T00:55:34.686Z,10.50
2023-04-17T01:00:34.592Z,8.30
2023-04-17T01:05:34.555Z,7.69
2023-04-17T01:10:34.488Z,8.39
2023-04-17T01:15:34.416Z,10.69
2023-04-17T01:20:34.340Z,8.00
2023-04-17T01:25:34.279Z,9.30
2023-04-17T01:30:34.223Z,11.60
2023-04-17T01:35:34.145Z,9.19
2023-04-17T01:40:34.064Z,7.19
2023-04-17T01:45:34.002Z,6.80
2023-04-17T01:50:33.934Z,8.69
2023-04-17T01:55:33.871Z,6.80
2023-04-17T02:00:33.800Z,8.00
2023-04-17T02:05:33.737Z,9.00
2023-04-17T02:10:33.666Z,9.00
2023-04-17T02:15:33.682Z,8.10
2023-04-17T02:20:33.539Z,10.00
2023-04-17T02:25:33.491Z,8.89
2023-04-17T02:30:33.401Z,12.69
2023-04-17T02:35:33.368Z,7.90
2023-04-17T02:40:33.267Z,8.00
2023-04-17T02:45:33.222Z,8.60
2023-04-17T02:50:33.141Z,11.30
2023-04-17T02:55:33.088Z,8.19
2023-04-17T03:00:33.055Z,9.19
2023-04-17T03:05:32.963Z,8.39
2023-04-17T03:10:32.891Z,7.50
2023-04-17T03:15:32.828Z,9.80
2023-04-17T03:20:32.745Z,8.50
2023-04-17T03:25:32.697Z,8.10
2023-04-17T03:30:32.617Z,9.89
2023-04-17T03:35:32.556Z,11.89
2023-04-17T03:40:33.725Z,10.80
2023-04-17T03:45:32.460Z,11.19
2023-04-17T03:50:32.367Z,10.10
2023-04-17T03:55:32.288Z,10.89
2023-04-17T04:00:32.224Z,12.39
2023-04-17T04:05:32.152Z,11.69
2023-04-17T04:10:32.085Z,10.39
2023-04-17T04:15:32.014Z,10.89
2023-04-17T04:20:31.940Z,8.89
2023-04-17T04:25:31.882Z,9.30
2023-04-17T04:30:31.803Z,9.69
2023-04-17T04:35:31.748Z,11.50
2023-04-17T04:40:31.675Z,12.00
2023-04-17T04:45:31.612Z,10.39
2023-04-17T04:50:31.556Z,14.89
2023-04-17T04:55:31.484Z,13.30
2023-04-17T05:00:31.421Z,13.39
2023-04-17T05:05:31.353Z,11.69
2023-04-17T05:10:31.305Z,11.30
2023-04-17T05:15:31.221Z,13.10
2023-04-17T05:20:31.156Z,11.10
2023-04-17T05:25:31.092Z,12.69
2023-04-17T05:30:31.045Z,12.10
2023-04-17T05:35:30.980Z,13.89
2023-04-17T05:40:30.893Z,9.69
2023-04-17T05:45:30.850Z,13.10
2023-04-17T05:50:30.743Z,11.30
2023-04-17T05:55:30.699Z,10.30
2023-04-17T06:00:30.612Z,12.69
2023-04-17T06:05:30.671Z,13.69
2023-04-17T06:10:30.485Z,16.00
2023-04-17T06:15:30.422Z,15.89
2023-04-17T06:20:30.353Z,15.30
2023-04-17T06:25:30.285Z,13.80
2023-04-17T06:30:30.217Z,14.60
2023-04-17T06:35:30.156Z,13.69
2023-04-17T06:40:30.098Z,16.00
2023-04-17T06:45:30.048Z,11.80
2023-04-17T06:50:29.965Z,15.50
2023-04-17T06:55:29.905Z,16.50
2023-04-17T07:00:29.843Z,15.30
2023-04-17T07:05:29.777Z,16.70
2023-04-17T07:10:29.692Z,14.00
2023-04-17T07:15:29.681Z,14.50
2023-04-17T07:20:29.550Z,14.80
2023-04-17T07:25:29.500Z,14.30
2023-04-17T07:30:29.431Z,14.89
2023-04-17T07:35:29.359Z,17.29
2023-04-17T07:40:29.280Z,16.39
2023-04-17T07:45:29.245Z,19.79
2023-04-17T07:50:29.158Z,19.00
2023-04-17T07:55:29.092Z,19.79
2023-04-17T08:00:29.021Z,18.60
2023-04-17T08:05:29.007Z,18.79
2023-04-17T08:10:28.893Z,18.00
2023-04-17T08:15:28.849Z,15.10
2023-04-17T08:20:28.757Z,23.29
2023-04-17T08:25:28.710Z,17.60
2023-04-17T08:30:28.623Z,20.60
2023-04-17T08:35:28.579Z,19.20
2023-04-17T08:40:28.495Z,17.79
2023-04-17T08:45:28.443Z,17.70
2023-04-17T08:50:28.371Z,17.39
2023-04-17T08:55:28.306Z,17.89
2023-04-17T09:00:28.255Z,15.10
2023-04-17T09:05:28.169Z,18.89
2023-04-17T09:10:28.096Z,15.80
2023-04-17T09:15:28.035Z,15.89
2023-04-17T09:20:27.961Z,16.10
2023-04-17T09:25:27.902Z,19.70
2023-04-17T09:30:27.855Z,14.50
2023-04-17T09:35:27.785Z,17.10
2023-04-17T09:40:27.704Z,19.50
2023-04-17T09:45:27.657Z,16.29
2023-04-17T09:50:27.571Z,15.30
2023-04-17T09:55:27.534Z,14.60
2023-04-17T10:00:27.475Z,12.80
2023-04-17T10:05:27.377Z,12.69
2023-04-17T10:10:27.300Z,12.80
2023-04-17T10:15:27.227Z,13.60
2023-04-17T10:20:27.156Z,14.10
2023-04-17T10:25:27.098Z,14.89
2023-04-17T10:30:27.037Z,14.00
2023-04-17T10:35:26.964Z,9.50
2023-04-17T10:40:26.903Z,10.30
2023-04-17T10:45:26.838Z,13.89
2023-04-17T10:50:26.761Z,8.69
2023-04-17T10:55:26.719Z,8.80
2023-04-17T11:00:26.627Z,7.19
2023-04-17T11:05:26.597Z,9.50
2023-04-17T11:10:26.516Z,7.69
2023-04-17T11:15:26.444Z,10.10
2023-04-17T11:20:26.382Z,8.00
2023-04-17T11:25:26.320Z,8.60
2023-04-17T11:30:26.230Z,7.19
2023-04-17T11:35:26.168Z,9.60
2023-04-17T11:40:26.122Z,8.19
2023-04-17T11:45:26.034Z,9.89
2023-04-17T11:50:25.968Z,9.80
2023-04-17T11:55:25.914Z,6.19
2023-04-17T12:00:25.845Z,9.80
2023-04-17T12:05:25.844Z,7.50
2023-04-17T12:10:25.713Z,8.30
2023-04-17T12:15:25.647Z,7.00
2023-04-17T12:20:26.779Z,6.00
2023-04-17T12:25:25.523Z,8.69
2023-04-17T12:30:25.439Z,8.19
2023-04-17T12:35:25.383Z,7.90
2023-04-17T12:40:25.331Z,8.10
2023-04-17T12:45:25.314Z,6.69
2023-04-17T12:50:25.186Z,6.80
2023-04-17T12:55:25.118Z,9.00
2023-04-17T13:00:25.061Z,7.80
2023-04-17T13:05:24.995Z,8.10
2023-04-17T13:10:24.931Z,7.90
2023-04-17T13:15:24.863Z,7.19
2023-04-17T13:20:24.801Z,9.30
2023-04-17T13:25:24.731Z,7.40
2023-04-17T13:30:24.657Z,10.89
2023-04-17T13:35:24.595Z,11.30
2023-04-17T13:40:24.530Z,7.90
2023-04-17T13:45:24.484Z,12.19
2023-04-17T13:50:24.406Z,8.19
2023-04-17T13:55:24.414Z,6.69
2023-04-17T14:00:24.278Z,6.90
2023-04-17T14:05:24.208Z,11.10
2023-04-17T14:10:24.155Z,8.50
2023-04-17T14:15:24.073Z,7.59
2023-04-17T14:20:23.994Z,10.39
2023-04-17T14:25:23.936Z,13.30
2023-04-17T14:30:23.891Z,8.10
2023-04-17T14:35:23.887Z,12.19
2023-04-17T14:40:23.828Z,8.19
2023-04-17T14:45:23.814Z,8.10
2023-04-17T14:50:23.787Z,8.00
2023-04-17T14:55:23.530Z,12.10
2023-04-17T15:00:23.462Z,8.69
2023-04-17T15:05:23.417Z,12.00
2023-04-17T15:10:23.329Z,10.60
2023-04-17T15:15:23.260Z,8.89
2023-04-17T15:20:23.996Z,8.60
2023-04-17T15:25:23.138Z,10.69
2023-04-17T15:30:23.068Z,8.50
2023-04-17T15:35:22.994Z,8.89
2023-04-17T15:40:22.919Z,10.60
2023-04-17T15:45:22.857Z,14.80
2023-04-17T15:50:22.824Z,10.69
2023-04-17T15:55:22.730Z,8.80
2023-04-17T16:00:22.658Z,10.30
2023-04-17T16:05:22.588Z,14.89
2023-04-17T16:10:22.507Z,13.30
2023-04-17T16:15:22.457Z,11.10
2023-04-17T16:20:22.377Z,10.69
2023-04-17T16:25:22.325Z,10.30
2023-04-17T16:30:22.244Z,10.00
2023-04-17T16:35:22.179Z,11.89
2023-04-17T16:40:22.110Z,11.69
2023-04-17T16:45:22.054Z,9.89
2023-04-17T16:50:24.281Z,12.30
2023-04-17T16:55:21.936Z,8.69
2023-04-17T17:00:21.843Z,11.10
2023-04-17T17:05:21.810Z,11.10
2023-04-17T17:10:21.705Z,10.19
2023-04-17T17:15:21.658Z,11.00
2023-04-17T17:20:21.590Z,11.50
2023-04-17T17:25:21.529Z,11.50
2023-04-17T17:30:21.447Z,10.89
2023-04-17T17:35:21.486Z,16.29
2023-04-17T17:40:21.310Z,10.89
2023-04-17T17:45:21.254Z,11.30
2023-04-17T17:50:21.178Z,13.60
2023-04-17T17:55:21.120Z,11.60
2023-04-17T18:00:21.154Z,14.39
2023-04-17T18:05:21.002Z,13.50
2023-04-17T18:10:20.927Z,13.30
2023-04-17T18:15:20.889Z,12.50
2023-04-17T18:20:20.900Z,15.30
2023-04-17T18:25:20.741Z,13.80
2023-04-17T18:30:20.645Z,12.50
2023-04-17T18:35:20.596Z,15.00
2023-04-17T18:40:20.512Z,14.60
2023-04-17T18:45:20.466Z,15.00
2023-04-17T18:50:20.393Z,15.80
2023-04-17T18:55:20.311Z,18.29
2023-04-17T19:00:20.273Z,15.50
2023-04-17T19:05:20.206Z,18.10
2023-04-17T19:10:20.128Z,17.89
2023-04-17T19:15:20.048Z,17.60
2023-04-17T19:20:19.992Z,19.20
2023-04-17T19:25:19.917Z,16.79
2023-04-17T19:30:19.862Z,17.20
2023-04-17T19:35:19.778Z,16.29
2023-04-17T19:40:25.000Z,17.50
2023-04-17T19:45:19.643Z,18.39
2023-04-17T19:50:19.578Z,16.89
2023-04-17T19:55:19.502Z,16.70
2023-04-17T20:00:19.442Z,18.00
2023-04-17T20:05:19.371Z,15.50
2023-04-17T20:10:19.309Z,12.60
2023-04-17T20:15:19.234Z,12.50
2023-04-17T20:20:19.194Z,12.19
2023-04-17T20:25:19.106Z,11.10
2023-04-17T20:30:19.074Z,14.39
2023-04-17T20:35:18.972Z,11.19
2023-04-17T20:40:18.923Z,10.89
2023-04-17T20:45:18.841Z,10.60
2023-04-17T20:50:18.797Z,9.39
2023-04-17T20:55:18.876Z,9.60
2023-04-17T21:00:18.662Z,10.60
2023-04-17T21:05:18.574Z,9.80
2023-04-17T21:10:18.519Z,10.00
2023-04-17T21:15:18.452Z,9.50
2023-04-17T21:20:18.381Z,9.39
2023-04-17T21:25:18.316Z,9.39
2023-04-17T21:30:18.273Z,10.10
2023-04-17T21:35:18.178Z,11.50
2023-04-17T21:40:18.125Z,10.10
2023-04-17T21:45:18.045Z,10.00
2023-04-17T21:50:17.983Z,9.80
2023-04-17T21:55:17.918Z,11.10
2023-04-17T22:00:17.876Z,8.89
2023-04-17T22:05:17.779Z,9.69
2023-04-17T22:10:17.724Z,11.10
2023-04-17T22:15:17.664Z,9.69
2023-04-17T22:20:17.586Z,9.39
2023-04-17T22:25:17.529Z,10.00
2023-04-17T22:30:17.459Z,9.89
2023-04-17T22:35:17.390Z,9.19
2023-04-17T22:40:17.332Z,10.00
2023-04-17T22:45:17.264Z,9.19
2023-04-17T22:50:17.190Z,9.10
2023-04-17T22:55:17.124Z,12.69
2023-04-17T23:00:17.068Z,9.30
2023-04-17T23:05:17.120Z,10.39
2023-04-17T23:10:16.921Z,11.19
2023-04-17T23:15:16.849Z,10.39
2023-04-17T23:20:16.797Z,11.39
2023-04-17T23:25:16.716Z,10.10
2023-04-17T23:30:16.671Z,11.30
2023-04-17T23:35:16.605Z,12.10
2023-04-17T23:40:16.524Z,12.00
2023-04-17T23:45:16.463Z,12.30
2023-04-17T23:50:16.425Z,14.10
2023-04-17T23:55:16.340Z,12.30
